Time;durP1;ratioP1;P1;durP2;ratioP2;P2;SDS_P1;SDS_P2;PMS_P1;PMS_P2;Temp;Humidity;BMP_temperature;BMP_pressure;BME280_temperature;BME280_humidity;BME280_pressure;Samples;Min_cycle;Max_cycle;Signal;HPM_P1;HPM_P2
2022/05/17 00:02:22;;;;;;;19.33;16.03;;;;;;;17.28;86.55;101142.56;5033115;28;20643;-83
2022/05/17 00:04:50;;;;;;;19.43;15.47;;;;;;;17.27;86.54;101146.22;5033887;28;20222;-83
2022/05/17 00:07:18;;;;;;;21.37;15.60;;;;;;;17.26;86.69;101146.34;5034363;28;20629;-83
2022/05/17 00:09:44;;;;;;;19.20;14.97;;;;;;;17.26;86.92;101146.34;5031952;28;20219;-83
2022/05/17 00:12:12;;;;;;;19.50;15.83;;;;;;;17.25;86.77;101144.66;5041640;28;20686;-83
2022/05/17 00:14:38;;;;;;;23.07;15.83;;;;;;;17.23;86.79;101146.59;5054207;28;20558;-85
2022/05/17 00:17:05;;;;;;;18.07;15.13;;;;;;;17.21;86.67;101146.72;5035312;28;20208;-85
2022/05/17 00:19:32;;;;;;;19.60;17.00;;;;;;;17.17;86.80;101153.38;5035088;28;20206;-85
2022/05/17 00:22:00;;;;;;;18.53;16.43;;;;;;;17.15;86.94;101151.78;5034711;28;20566;-83
2022/05/17 00:24:27;;;;;;;20.00;16.83;;;;;;;17.14;86.99;101156.31;5029063;28;20216;-83
2022/05/17 00:26:54;;;;;;;21.53;18.17;;;;;;;17.13;87.17;101153.75;5032303;28;20229;-83
2022/05/17 00:29:21;;;;;;;19.10;17.07;;;;;;;17.12;87.64;101160.13;5023728;28;20377;-84
2022/05/17 00:31:48;;;;;;;19.67;17.57;;;;;;;17.12;87.49;101157.41;5024842;28;20224;-83
2022/05/17 00:34:15;;;;;;;19.60;17.03;;;;;;;17.11;87.55;101161.09;5021521;28;20215;-84
2022/05/17 00:36:41;;;;;;;19.30;17.27;;;;;;;17.11;87.66;101153.88;5021174;28;20201;-83
2022/05/17 00:39:09;;;;;;;23.57;17.73;;;;;;;17.12;87.93;101157.41;5021050;28;20237;-83
2022/05/17 00:41:36;;;;;;;22.33;18.63;;;;;;;17.13;88.04;101154.59;5023848;28;20213;-83
2022/05/17 00:46:53;;;;;;;22.60;18.20;;;;;;;17.16;88.28;101156.19;5014886;28;20840;-83
2022/05/17 00:49:26;;;;;;;20.60;18.40;;;;;;;17.15;88.12;101154.47;5019945;28;20237;-83
2022/05/17 00:51:59;;;;;;;19.97;17.83;;;;;;;17.14;88.19;101155.47;5024449;28;20212;-83
2022/05/17 00:54:29;;;;;;;20.03;17.90;;;;;;;17.15;88.22;101159.88;5020534;28;20212;-83
2022/05/17 00:57:02;;;;;;;21.67;18.07;;;;;;;17.15;88.48;101154.47;5018778;28;20228;-84
2022/05/17 00:59:30;;;;;;;20.27;16.77;;;;;;;17.16;88.45;101154.34;5022108;28;20203;-83
2022/05/17 01:01:57;;;;;;;22.73;18.57;;;;;;;17.17;88.45;101156.06;5020047;28;20255;-83
2022/05/17 01:04:25;;;;;;;20.33;18.13;;;;;;;17.17;88.45;101158.75;5015904;28;20218;-83
2022/05/17 01:06:59;;;;;;;21.07;18.87;;;;;;;17.16;88.40;101151.66;5021005;28;20231;-83
2022/05/17 01:09:27;;;;;;;22.87;18.27;;;;;;;17.16;88.40;101157.06;5027751;28;20233;-83
2022/05/17 01:11:53;;;;;;;20.97;18.57;;;;;;;17.15;88.26;101152.66;5035050;28;20220;-84
2022/05/17 01:17:05;;;;;;;20.07;17.73;;;;;;;17.13;87.90;101151.91;5049257;28;20208;-83
2022/05/17 01:19:32;;;;;;;23.27;17.80;;;;;;;17.11;87.70;101145.81;5045448;28;20200;-82
2022/05/17 01:22:00;;;;;;;19.97;17.00;;;;;;;17.10;87.57;101154.84;5046064;28;20201;-84
2022/05/17 01:24:26;;;;;;;19.60;17.53;;;;;;;17.07;87.49;101149.72;5030904;28;20203;-83
2022/05/17 01:27:00;;;;;;;19.37;17.27;;;;;;;17.05;87.32;101145.44;5028145;28;20233;-83
2022/05/17 01:29:27;;;;;;;18.67;15.97;;;;;;;17.02;87.38;101141.16;5023902;28;20270;-83
2022/05/17 01:31:53;;;;;;;18.70;16.07;;;;;;;17.00;87.16;101140.47;5032113;28;20208;-83
2022/05/17 01:34:20;;;;;;;22.53;15.73;;;;;;;16.98;86.93;101137.03;5033390;28;20215;-83
2022/05/17 01:36:47;;;;;;;19.63;15.70;;;;;;;16.95;86.88;101130.06;5031594;28;20204;-84
2022/05/17 01:39:15;;;;;;;20.97;15.00;;;;;;;16.94;86.59;101143.66;5031754;28;20260;-83
2022/05/17 01:41:41;;;;;;;19.67;15.43;;;;;;;16.89;86.59;101138.63;5031894;28;20218;-83
2022/05/17 01:44:09;;;;;;;19.00;15.17;;;;;;;16.87;86.30;101135.22;5031598;28;20201;-83
2022/05/17 01:46:35;;;;;;;20.03;14.97;;;;;;;16.85;86.64;101136.31;5030255;28;20226;-83
2022/05/17 01:49:02;;;;;;;18.57;14.93;;;;;;;16.82;86.32;101124.00;5031135;28;20223;-83
2022/05/17 01:51:28;;;;;;;18.50;15.60;;;;;;;16.81;86.12;101132.19;5032140;28;20219;-83
2022/05/17 01:53:55;;;;;;;17.43;14.37;;;;;;;16.78;86.07;101132.44;5031679;28;20203;-83
2022/05/17 01:56:23;;;;;;;19.93;15.90;;;;;;;16.78;86.05;101129.75;5030766;28;20303;-83
2022/05/17 01:58:49;;;;;;;20.77;16.00;;;;;;;16.76;86.05;101124.50;5030535;28;20229;-83
2022/05/17 02:01:16;;;;;;;19.80;15.53;;;;;;;16.76;86.17;101121.78;5031455;28;20216;-83
2022/05/17 02:03:43;;;;;;;18.27;16.23;;;;;;;16.75;86.18;101122.78;5031476;28;20230;-83
2022/05/17 02:06:09;;;;;;;22.03;17.23;;;;;;;16.75;85.99;101121.91;5030446;28;20216;-82
2022/05/17 02:08:36;;;;;;;25.10;16.57;;;;;;;16.73;86.08;101122.03;5030733;28;20243;-83
2022/05/17 02:11:03;;;;;;;20.07;16.50;;;;;;;16.73;86.04;101123.88;5031269;28;20212;-83
2022/05/17 02:13:31;;;;;;;21.80;17.27;;;;;;;16.74;86.10;101125.59;5031346;28;20215;-83
2022/05/17 02:15:58;;;;;;;21.53;17.53;;;;;;;16.70;86.01;101127.66;5031750;28;20205;-84
2022/05/17 02:18:25;;;;;;;23.07;17.70;;;;;;;16.70;86.02;101129.50;5020037;28;20225;-84
2022/05/17 02:20:51;;;;;;;20.67;17.43;;;;;;;16.67;86.02;101126.06;5040970;28;20204;-84
2022/05/17 02:23:18;;;;;;;21.33;17.20;;;;;;;16.66;85.86;101123.50;5020384;28;20556;-82
2022/05/17 02:25:44;;;;;;;21.27;17.90;;;;;;;16.63;85.82;101115.72;5019283;28;20697;-84
2022/05/17 02:28:11;;;;;;;24.07;18.43;;;;;;;16.61;85.93;101112.25;5022929;28;20573;-84
2022/05/17 02:30:41;;;;;;;23.50;17.87;;;;;;;16.60;86.12;101113.25;5026277;28;20200;-83
2022/05/17 02:33:07;;;;;;;24.63;17.83;;;;;;;16.57;86.04;101111.66;5030896;28;20264;-84
2022/05/17 02:35:35;;;;;;;22.30;17.43;;;;;;;16.55;86.00;101118.13;5030938;28;20215;-83
2022/05/17 02:38:01;;;;;;;26.83;17.50;;;;;;;16.51;86.13;101116.66;5029990;28;20235;-83
2022/05/17 02:40:28;;;;;;;19.83;16.23;;;;;;;16.49;86.08;101113.22;5032782;28;20221;-83
2022/05/17 02:42:55;;;;;;;19.97;16.80;;;;;;;16.46;85.93;101117.06;5033024;28;20705;-84
2022/05/17 02:45:21;;;;;;;29.77;15.80;;;;;;;16.44;85.99;101118.16;5033116;28;20234;-83
2022/05/17 02:47:49;;;;;;;21.40;16.07;;;;;;;16.42;86.07;101109.34;5032623;28;20240;-83
2022/05/17 02:50:17;;;;;;;23.63;15.77;;;;;;;16.39;86.04;101109.59;5033303;28;20219;-83
2022/05/17 02:52:43;;;;;;;19.40;15.43;;;;;;;16.38;85.78;101113.25;5033498;28;20213;-83
2022/05/17 02:55:10;;;;;;;17.27;15.30;;;;;;;16.34;85.84;101115.31;5031203;28;20208;-83
2022/05/17 02:57:37;;;;;;;20.83;15.80;;;;;;;16.33;85.76;101124.38;5029391;28;20619;-83
2022/05/17 03:00:06;;;;;;;26.60;16.07;;;;;;;16.31;85.77;101121.78;5030675;28;20211;-82
2022/05/17 03:02:32;;;;;;;22.30;16.33;;;;;;;16.28;85.77;101127.44;5031933;28;20230;-83
2022/05/17 03:05:00;;;;;;;22.17;15.67;;;;;;;16.27;85.96;101127.56;5031733;28;20215;-83
2022/05/17 03:07:27;;;;;;;19.40;16.00;;;;;;;16.26;85.90;101129.41;5030333;28;20231;-83
2022/05/17 03:09:53;;;;;;;22.23;16.67;;;;;;;16.24;85.92;101133.19;5030484;28;20216;-83
2022/05/17 03:12:20;;;;;;;24.47;17.20;;;;;;;16.24;86.00;101136.72;5031326;28;20671;-84
2022/05/17 03:14:46;;;;;;;27.53;17.40;;;;;;;16.24;86.24;101133.19;5032964;28;20698;-83
2022/05/17 03:17:14;;;;;;;24.60;17.47;;;;;;;16.23;86.20;101139.53;5029155;28;20215;-84
2022/05/17 03:19:42;;;;;;;22.03;17.03;;;;;;;16.23;86.12;101142.22;5030852;28;20209;-84
2022/05/17 03:22:10;;;;;;;24.77;18.00;;;;;;;16.22;85.78;101145.88;5030338;28;20211;-84
2022/05/17 03:24:37;;;;;;;25.50;18.70;;;;;;;16.20;86.11;101153.19;5011679;28;20619;-84
2022/05/17 03:27:05;;;;;;;28.83;19.10;;;;;;;16.19;86.16;101146.97;5012974;28;20236;-85
2022/05/17 03:29:31;;;;;;;23.17;19.13;;;;;;;16.19;86.24;101156.88;5029129;28;20209;-84
2022/05/17 03:31:58;;;;;;;26.83;18.97;;;;;;;16.18;86.41;101147.09;5033934;28;20690;-85
2022/05/17 03:34:25;;;;;;;25.13;19.67;;;;;;;16.19;86.44;101156.88;5031988;28;20206;-84
2022/05/17 03:36:52;;;;;;;26.30;19.13;;;;;;;16.18;86.57;101160.53;5031454;28;20207;-84
2022/05/17 03:39:20;;;;;;;27.63;19.63;;;;;;;16.18;86.55;101163.22;5031735;28;20742;-84
2022/05/17 03:41:46;;;;;;;24.93;18.93;;;;;;;16.18;86.79;101168.59;5032047;28;20211;-84
2022/05/17 03:44:13;;;;;;;25.17;19.90;;;;;;;16.18;86.69;101171.28;5032391;28;20713;-84
2022/05/17 03:46:39;;;;;;;24.50;18.80;;;;;;;16.18;86.65;101173.97;5030982;28;20736;-84
2022/05/17 03:49:06;;;;;;;22.43;19.13;;;;;;;16.18;86.75;101173.97;5032399;28;20223;-85
2022/05/17 03:51:32;;;;;;;26.50;19.53;;;;;;;16.17;86.96;101172.25;5031994;28;20205;-85
2022/05/17 03:53:59;;;;;;;23.70;18.90;;;;;;;16.17;86.94;101172.25;5031721;28;20203;-84
2022/05/17 03:56:27;;;;;;;23.93;19.10;;;;;;;16.17;86.76;101191.06;5028905;28;20787;-83
2022/05/17 03:58:53;;;;;;;29.27;20.30;;;;;;;16.18;86.99;101187.41;5028320;28;20233;-84
2022/05/17 04:01:20;;;;;;;23.10;19.03;;;;;;;16.20;87.09;101189.00;5021781;28;20253;-85
2022/05/17 04:03:46;;;;;;;26.57;19.73;;;;;;;16.20;87.06;101191.69;5020016;28;20569;-85
2022/05/17 04:06:13;;;;;;;28.63;19.93;;;;;;;16.22;87.05;101180.81;5020345;28;20231;-83
2022/05/17 04:08:40;;;;;;;25.83;20.13;;;;;;;16.22;86.97;101195.09;5025748;28;20249;-83
2022/05/17 04:11:07;;;;;;;26.30;19.43;;;;;;;16.23;87.41;101188.75;5029367;28;20268;-84
2022/05/17 04:13:35;;;;;;;25.07;18.77;;;;;;;16.24;87.15;101187.78;5017795;28;20682;-84
2022/05/17 04:16:03;;;;;;;27.40;18.93;;;;;;;16.25;87.46;101183.25;5019454;28;20219;-84
2022/05/17 04:18:30;;;;;;;22.40;18.10;;;;;;;16.26;87.23;101190.34;5018969;28;20228;-84
2022/05/17 04:21:00;;;;;;;28.00;19.53;;;;;;;16.27;87.18;101186.69;5022843;28;20689;-84
2022/05/17 04:23:27;;;;;;;30.67;20.33;;;;;;;16.28;87.30;101183.88;5017495;28;20215;-85
2022/05/17 04:25:53;;;;;;;23.97;17.63;;;;;;;16.27;87.27;101187.56;5023692;28;20210;-83
2022/05/17 04:28:20;;;;;;;24.33;18.30;;;;;;;16.28;87.19;101186.56;5022447;28;20237;-84
2022/05/17 04:30:48;;;;;;;26.23;18.70;;;;;;;16.27;87.16;101187.56;5026756;28;20204;-84
2022/05/17 04:33:15;;;;;;;23.70;17.67;;;;;;;16.27;86.95;101190.25;5027579;28;20203;-84
2022/05/17 04:35:42;;;;;;;22.07;17.10;;;;;;;16.27;87.20;101190.25;5012820;28;20582;-84
2022/05/17 04:38:10;;;;;;;24.97;17.97;;;;;;;16.26;87.12;101199.28;5018014;28;20228;-83
2022/05/17 04:40:38;;;;;;;22.97;17.77;;;;;;;16.26;87.04;101201.09;5014513;28;20214;-84
2022/05/17 04:43:05;;;;;;;23.20;17.03;;;;;;;16.27;87.05;101202.81;5017555;28;20208;-83
2022/05/17 04:45:31;;;;;;;20.77;16.83;;;;;;;16.26;87.25;101199.28;5021158;28;20577;-84
2022/05/17 04:47:59;;;;;;;24.00;16.50;;;;;;;16.26;87.11;101190.34;5015857;28;20599;-83
2022/05/17 04:50:26;;;;;;;26.23;17.90;;;;;;;16.27;86.91;101190.25;5021758;28;20211;-84
2022/05/17 04:52:53;;;;;;;19.80;17.10;;;;;;;16.28;87.29;101204.53;5016362;28;20261;-84
2022/05/17 04:55:21;;;;;;;22.83;17.00;;;;;;;16.31;87.09;101198.88;5020388;28;20604;-84
2022/05/17 04:57:48;;;;;;;22.53;16.07;;;;;;;16.32;87.11;101205.97;5022035;28;20234;-82
2022/05/17 05:00:18;;;;;;;17.67;15.50;;;;;;;16.35;87.47;101199.50;5020140;28;20208;-83
2022/05/17 05:02:45;;;;;;;22.43;16.60;;;;;;;16.36;87.31;101206.59;5020280;28;20206;-85
2022/05/17 05:05:14;;;;;;;21.57;15.73;;;;;;;16.36;86.81;101207.47;5024612;28;20206;-83
2022/05/17 05:07:41;;;;;;;21.07;15.20;;;;;;;16.37;86.94;101222.59;5022026;28;20632;-83
2022/05/17 05:10:09;;;;;;;23.60;15.50;;;;;;;16.37;86.92;101228.00;5024919;28;20782;-85
2022/05/17 05:12:36;;;;;;;21.77;14.63;;;;;;;16.34;86.89;101220.16;5023061;28;20208;-84
2022/05/17 05:15:03;;;;;;;16.83;14.10;;;;;;;16.35;87.14;101221.88;5016026;28;20240;-83
2022/05/17 05:17:31;;;;;;;19.33;14.77;;;;;;;16.36;86.90;101222.72;5017767;28;20220;-84
2022/05/17 05:20:00;;;;;;;23.73;14.97;;;;;;;16.39;87.19;101227.88;5022069;28;20209;-83
2022/05/17 05:22:30;;;;;;;20.10;14.20;;;;;;;16.43;87.24;101218.59;5021544;28;20703;-83
2022/05/17 05:24:57;;;;;;;28.30;16.17;;;;;;;16.46;87.37;101227.28;5020548;28;21370;-82
2022/05/17 05:27:24;;;;;;;21.03;15.13;;;;;;;16.52;87.36;101228.59;5018039;28;20691;-84
2022/05/17 05:29:50;;;;;;;18.37;14.10;;;;;;;16.58;87.43;101233.50;5017076;28;20205;-82
2022/05/17 05:32:17;;;;;;;18.53;14.07;;;;;;;16.63;87.53;101232.22;5018159;28;20201;-85
2022/05/17 05:34:43;;;;;;;18.17;14.10;;;;;;;16.73;87.57;101234.16;5016338;28;20295;-85
2022/05/17 05:37:10;;;;;;;18.00;11.33;;;;;;;16.82;87.58;101234.28;5017495;28;20208;-82
2022/05/17 05:39:38;;;;;;;19.33;11.20;;;;;;;16.89;87.08;101237.31;5017478;28;20209;-83
2022/05/17 05:42:05;;;;;;;18.03;12.03;;;;;;;16.97;86.71;101238.44;5023294;28;20202;-84
2022/05/17 05:44:33;;;;;;;16.70;10.57;;;;;;;17.04;86.04;101237.91;5015620;28;20213;-82
2022/05/17 05:46:59;;;;;;;15.83;10.43;;;;;;;17.10;85.73;101234.75;5019094;28;20226;-81
2022/05/17 05:49:26;;;;;;;11.87;9.90;;;;;;;17.19;85.48;101234.00;5022915;28;20309;-83
2022/05/17 05:51:52;;;;;;;11.73;9.83;;;;;;;17.28;84.92;101235.94;5019307;28;20221;-83
2022/05/17 05:54:19;;;;;;;18.00;10.27;;;;;;;17.38;84.41;101234.16;5015146;28;20229;-84
2022/05/17 05:56:49;;;;;;;13.67;9.27;;;;;;;17.45;83.90;101238.09;5019384;28;20644;-84
2022/05/17 05:59:16;;;;;;;13.87;9.30;;;;;;;17.50;83.05;101232.31;5024138;28;20228;-84
2022/05/17 06:01:45;;;;;;;14.27;9.07;;;;;;;17.56;82.52;101242.56;5018407;28;20212;-84
2022/05/17 06:04:11;;;;;;;15.37;9.83;;;;;;;17.64;82.21;101246.38;5019089;28;20197;-84
2022/05/17 06:06:40;;;;;;;12.57;9.53;;;;;;;17.77;81.94;101251.59;5017763;28;20237;-84
2022/05/17 06:09:07;;;;;;;12.60;9.50;;;;;;;17.92;81.76;101255.69;5021319;28;20321;-84
2022/05/17 06:11:33;;;;;;;11.73;8.93;;;;;;;18.05;81.20;101258.22;5012285;28;20243;-83
2022/05/17 06:14:01;;;;;;;17.17;9.20;;;;;;;18.16;80.53;101249.19;5017311;28;20212;-84
2022/05/17 06:16:30;;;;;;;14.57;8.60;;;;;;;18.30;80.16;101254.25;5016509;28;20227;-83
2022/05/17 06:18:57;;;;;;;12.67;7.80;;;;;;;18.43;79.16;101254.06;5024630;28;20231;-84
2022/05/17 06:21:24;;;;;;;15.10;8.53;;;;;;;18.51;78.36;101255.09;5014403;28;20316;-82
2022/05/17 06:23:50;;;;;;;12.40;7.43;;;;;;;18.61;77.73;101264.16;5022000;28;20205;-83
2022/05/17 06:26:17;;;;;;;14.90;7.77;;;;;;;18.75;77.28;101259.38;5019168;28;20212;-83
2022/05/17 06:28:46;;;;;;;11.67;6.70;;;;;;;18.87;76.63;101252.88;5014921;28;20603;-84
2022/05/17 06:31:14;;;;;;;14.90;7.37;;;;;;;18.99;75.75;101252.63;5021874;28;20206;-83
2022/05/17 06:33:41;;;;;;;12.50;6.33;;;;;;;19.10;75.00;101256.25;5021653;28;20201;-83
2022/05/17 06:36:08;;;;;;;12.27;6.97;;;;;;;19.21;74.46;101262.38;5019384;28;20233;-82
2022/05/17 06:38:34;;;;;;;11.30;6.33;;;;;;;19.35;73.86;101263.81;5017292;28;20226;-82
2022/05/17 06:41:01;;;;;;;11.33;5.83;;;;;;;19.45;72.51;101263.84;5017489;28;20213;-82
2022/05/17 06:43:28;;;;;;;9.90;6.20;;;;;;;19.52;71.90;101265.91;5018152;28;20300;-83
2022/05/17 06:45:54;;;;;;;8.80;6.73;;;;;;;19.63;71.76;101268.47;5018396;28;20220;-84
2022/05/17 06:48:23;;;;;;;9.10;6.10;;;;;;;19.75;70.87;101266.47;5016007;28;20266;-83
2022/05/17 06:50:50;;;;;;;11.47;6.17;;;;;;;19.84;70.04;101264.78;5016016;28;20200;-82
2022/05/17 06:53:16;;;;;;;13.13;6.53;;;;;;;19.91;69.37;101266.78;5020157;28;20580;-83
2022/05/17 06:55:43;;;;;;;11.37;6.00;;;;;;;20.01;68.87;101272.19;5018258;28;20201;-83
2022/05/17 06:58:09;;;;;;;15.37;6.33;;;;;;;20.10;68.68;101271.31;5011305;28;20221;-83
2022/05/17 07:00:36;;;;;;;10.37;6.07;;;;;;;20.21;68.61;101268.47;5017068;28;20210;-82
2022/05/17 07:03:06;;;;;;;13.50;6.70;;;;;;;20.34;68.03;101268.16;5018839;28;20209;-82
2022/05/17 07:05:34;;;;;;;10.77;6.90;;;;;;;20.48;67.76;101265.03;5021742;28;20203;-82
2022/05/17 07:08:02;;;;;;;8.53;6.13;;;;;;;20.62;67.16;101261.00;5024145;28;20595;-83
2022/05/17 07:13:16;;;;;;;9.70;6.40;;;;;;;20.72;66.10;101262.69;5025322;28;20216;-82
2022/05/17 07:15:51;;;;;;;13.90;6.43;;;;;;;20.71;65.80;101276.38;5024635;28;20216;-83
2022/05/17 07:18:21;;;;;;;12.23;6.20;;;;;;;20.69;65.64;101273.81;5021336;28;20224;-82
2022/05/17 07:20:50;;;;;;;9.32;6.38;;;;;;;20.67;65.87;101270.38;5020438;28;20213;-84
2022/05/17 07:23:17;;;;;;;11.00;5.87;;;;;;;20.71;66.19;101274.50;5017507;28;20202;-83
2022/05/17 07:25:45;;;;;;;10.03;6.00;;;;;;;20.84;66.76;101268.75;5019837;28;20202;-83
2022/05/17 07:28:17;;;;;;;10.38;5.68;;;;;;;20.92;65.75;101268.03;5021376;28;20229;-83
2022/05/17 07:30:43;;;;;;;12.38;6.47;;;;;;;20.96;65.07;101274.88;5022222;28;20203;-84
2022/05/17 07:33:10;;;;;;;7.95;4.82;;;;;;;21.02;65.07;101272.38;5020667;28;20738;-82
2022/05/17 07:35:37;;;;;;;8.07;5.45;;;;;;;21.09;64.62;101275.38;5015844;28;20222;-81
2022/05/17 07:38:06;;;;;;;10.25;5.43;;;;;;;21.18;64.29;101276.31;5017024;28;20234;-81
2022/05/17 07:40:32;;;;;;;14.93;5.70;;;;;;;21.24;63.92;101282.00;5016490;28;20199;-81
2022/05/17 07:43:00;;;;;;;11.77;5.70;;;;;;;21.29;63.50;101281.56;5020002;28;20203;-83
2022/05/17 07:45:27;;;;;;;9.35;5.63;;;;;;;21.41;64.13;101277.63;5025219;28;20206;-83
2022/05/17 07:47:53;;;;;;;12.48;5.82;;;;;;;21.54;63.44;101278.13;5036134;28;20242;-82
2022/05/17 07:50:20;;;;;;;9.27;6.22;;;;;;;21.61;62.69;101278.38;5034390;28;20205;-82
2022/05/17 07:52:47;;;;;;;9.32;5.65;;;;;;;21.69;62.46;101278.44;5033920;28;20563;-82
2022/05/17 07:55:15;;;;;;;9.85;5.60;;;;;;;21.78;62.49;101277.53;5033666;28;20292;-81
2022/05/17 07:57:42;;;;;;;10.23;6.10;;;;;;;21.90;62.11;101281.69;5034095;28;20226;-82
2022/05/17 08:00:09;;;;;;;9.70;5.35;;;;;;;22.00;61.84;101277.09;5033979;28;20202;-82
2022/05/17 08:02:36;;;;;;;10.10;6.22;;;;;;;22.07;61.23;101274.59;5034135;28;20207;-82
2022/05/17 08:05:04;;;;;;;9.75;5.53;;;;;;;22.17;61.16;101267.25;5035260;28;20614;-81
2022/05/17 08:07:31;;;;;;;7.57;4.82;;;;;;;22.32;60.98;101275.66;5035199;28;20229;-82
2022/05/17 08:09:58;;;;;;;7.55;5.28;;;;;;;22.45;60.66;101265.22;5036037;28;20628;-82
2022/05/17 08:12:26;;;;;;;12.32;5.75;;;;;;;22.60;60.23;101270.91;5035552;28;20236;-81
2022/05/17 08:14:52;;;;;;;7.18;4.90;;;;;;;22.67;59.48;101263.84;5035096;28;20631;-82
2022/05/17 08:17:19;;;;;;;9.45;5.55;;;;;;;22.72;59.26;101275.94;5035253;28;20206;-82
2022/05/17 08:19:46;;;;;;;8.68;5.13;;;;;;;22.74;58.61;101273.91;5034558;28;20208;-83
2022/05/17 08:22:15;;;;;;;9.10;5.55;;;;;;;22.77;58.65;101273.59;5034094;28;20201;-82
2022/05/17 08:27:36;;;;;;;8.88;4.88;;;;;;;22.99;58.27;101271.34;5022317;28;20225;-82
2022/05/17 08:30:07;;;;;;;9.75;4.72;;;;;;;23.15;58.20;101274.13;5020711;28;20202;-82
2022/05/17 08:35:18;;;;;;;7.90;4.13;;;;;;;23.41;56.00;101279.50;5023484;28;20277;-82
2022/05/17 08:37:45;;;;;;;10.98;4.60;;;;;;;23.48;55.58;101284.09;5016467;28;20227;-82
2022/05/17 08:40:19;;;;;;;6.18;3.95;;;;;;;23.59;55.35;101285.72;5031653;28;20214;-82
2022/05/17 08:42:57;;;;;;;7.25;4.10;;;;;;;23.75;55.99;101283.03;5031712;28;20205;-83
2022/05/17 08:45:33;;;;;;;7.75;3.45;;;;;;;23.89;55.14;101285.06;5014441;28;20708;-83
2022/05/17 08:48:00;;;;;;;6.38;3.58;;;;;;;23.93;54.21;101279.31;5028357;28;20644;-82
2022/05/17 08:50:29;;;;;;;6.45;3.45;;;;;;;23.95;54.08;101280.84;5026938;28;20209;-83
2022/05/17 08:52:56;;;;;;;9.05;3.70;;;;;;;24.00;53.59;101285.78;5025004;28;20241;-83
2022/05/17 08:55:27;;;;;;;5.68;3.97;;;;;;;24.03;53.34;101282.69;5026002;28;20197;-84
2022/05/17 08:57:58;;;;;;;8.13;4.15;;;;;;;24.06;53.36;101285.09;5027163;28;20221;-83
2022/05/17 09:00:30;;;;;;;6.85;3.97;;;;;;;24.09;53.14;101291.06;5025668;28;20232;-85
2022/05/17 09:03:00;;;;;;;8.50;4.13;;;;;;;24.11;52.82;101286.28;5028780;28;20290;-83
2022/05/17 09:05:36;;;;;;;4.82;3.38;;;;;;;24.16;52.23;101297.53;5027746;28;20216;-83
2022/05/17 09:08:12;;;;;;;6.93;3.20;;;;;;;24.18;51.65;101290.00;5024960;28;20268;-82
2022/05/17 09:10:41;;;;;;;7.60;3.38;;;;;;;24.17;51.59;101290.22;5036916;28;20622;-83
2022/05/17 09:13:13;;;;;;;6.63;3.47;;;;;;;24.21;51.66;101295.13;5041808;28;20222;-85
2022/05/17 09:15:41;;;;;;;4.35;2.60;;;;;;;24.24;51.57;101296.69;5042339;28;20254;-84
2022/05/17 09:18:10;;;;;;;7.40;3.10;;;;;;;24.28;51.15;101289.03;5038435;28;20245;-84
2022/05/17 09:20:39;;;;;;;2.92;2.20;;;;;;;24.31;50.59;101300.44;5037767;28;20217;-83
2022/05/17 09:23:06;;;;;;;6.10;2.47;;;;;;;24.33;50.04;101303.84;5036312;28;20209;-82
2022/05/17 09:25:50;;;;;;;8.25;2.67;;;;;;;24.42;50.16;101310.13;5034167;28;20202;-83
2022/05/17 09:28:24;;;;;;;5.22;2.53;;;;;;;24.44;49.17;101313.53;5018737;28;20229;-82
2022/05/17 09:31:08;;;;;;;3.88;2.60;;;;;;;24.46;49.64;101298.72;5016629;28;20200;-82
2022/05/17 09:33:35;;;;;;;3.33;1.90;;;;;;;24.49;49.09;101305.72;5016362;28;20775;-83
2022/05/17 09:36:02;;;;;;;3.50;1.85;;;;;;;24.51;48.65;101298.22;5031716;28;20557;-82
2022/05/17 09:38:31;;;;;;;6.53;2.35;;;;;;;24.57;48.53;101305.69;5032499;28;20283;-82
2022/05/17 09:40:58;;;;;;;4.13;2.03;;;;;;;24.65;48.10;101310.28;5033494;28;20301;-81
2022/05/17 09:43:42;;;;;;;6.18;1.85;;;;;;;24.72;48.11;101308.59;5027616;28;20202;-83
2022/05/17 09:46:13;;;;;;;4.95;2.30;;;;;;;24.79;48.10;101304.13;5025414;28;20568;-83
2022/05/17 09:54:10;;;;;;;3.90;1.70;;;;;;;24.68;46.86;101302.63;5014067;28;20373;-82
2022/05/17 09:56:36;;;;;;;4.32;1.90;;;;;;;24.71;46.81;101301.44;5022050;28;20636;-82
2022/05/17 09:59:21;;;;;;;4.28;1.55;;;;;;;24.75;47.13;101300.03;5018562;28;20222;-83
2022/05/17 10:01:49;;;;;;;5.30;1.80;;;;;;;24.83;47.03;101303.59;5026526;28;20617;-82
2022/05/17 10:04:20;;;;;;;2.88;1.65;;;;;;;24.93;46.98;101293.34;5019411;28;20198;-83
2022/05/17 10:06:53;;;;;;;3.17;1.55;;;;;;;25.03;47.50;101295.06;5023820;28;20206;-83
2022/05/17 10:09:28;;;;;;;3.65;1.45;;;;;;;25.11;45.54;101293.16;5024427;28;20226;-82
2022/05/17 10:12:01;;;;;;;3.38;1.17;;;;;;;25.12;44.14;101294.84;5020368;28;20205;-82
2022/05/17 10:14:34;;;;;;;3.17;1.42;;;;;;;25.14;44.19;101289.22;5022282;28;20202;-83
2022/05/17 10:17:04;;;;;;;3.72;1.38;;;;;;;25.21;43.91;101287.50;5013879;28;20293;-83
2022/05/17 10:19:44;;;;;;;2.38;1.17;;;;;;;25.23;43.54;101288.19;5022794;28;20218;-83
2022/05/17 10:22:24;;;;;;;4.95;1.20;;;;;;;25.25;43.67;101289.72;5025825;28;20206;-83
2022/05/17 10:24:57;;;;;;;4.05;1.35;;;;;;;25.24;41.54;101284.44;5015435;28;20199;-83
2022/05/17 10:27:31;;;;;;;2.70;1.00;;;;;;;25.21;40.86;101284.78;5011838;28;20230;-83
2022/05/17 10:30:04;;;;;;;2.47;1.20;;;;;;;25.23;40.57;101280.84;5031333;28;20214;-83
2022/05/17 10:32:37;;;;;;;3.33;1.20;;;;;;;25.29;40.96;101276.53;5032412;28;20224;-83
2022/05/17 10:35:11;;;;;;;5.15;1.52;;;;;;;25.35;41.49;101270.38;5032256;28;20186;-82
2022/05/17 10:37:45;;;;;;;2.65;1.45;;;;;;;25.43;40.95;101272.25;5032036;28;20283;-82
2022/05/17 10:40:15;;;;;;;3.08;1.30;;;;;;;25.52;41.19;101274.72;5032517;28;20250;-82
2022/05/17 10:42:43;;;;;;;3.28;1.30;;;;;;;25.65;41.25;101278.78;5032531;28;20187;-82
2022/05/17 10:45:19;;;;;;;4.50;1.13;;;;;;;25.76;40.78;101281.09;5032100;28;20206;-83
2022/05/17 10:47:48;;;;;;;3.58;1.20;;;;;;;25.80;39.18;101276.97;5031079;28;20221;-82
2022/05/17 10:50:25;;;;;;;5.30;1.27;;;;;;;25.86;39.46;101278.97;5031663;28;20779;-82
2022/05/17 10:53:02;;;;;;;4.22;1.00;;;;;;;25.92;38.89;101279.09;5030706;28;20206;-83
2022/05/17 10:55:37;;;;;;;1.88;1.15;;;;;;;25.99;39.07;101276.47;5015254;28;20641;-83
2022/05/17 10:58:13;;;;;;;3.03;1.05;;;;;;;26.08;39.06;101274.56;5016360;28;20226;-83
2022/05/17 11:00:44;;;;;;;1.58;0.90;;;;;;;26.17;38.95;101262.50;5012566;28;20194;-83
2022/05/17 11:03:53;;;;;;;2.58;1.00;;;;;;;26.27;38.56;101268.59;5012332;28;20198;-82
2022/05/17 11:06:27;;;;;;;4.55;1.20;;;;;;;26.31;38.08;101285.50;5011575;28;20209;-82
2022/05/17 11:09:02;;;;;;;2.55;0.90;;;;;;;26.32;36.92;101270.81;5012781;28;20238;-82
2022/05/17 11:11:44;;;;;;;1.83;0.88;;;;;;;26.30;36.96;101265.53;5013133;28;20201;-81
2022/05/17 11:14:18;;;;;;;4.55;0.98;;;;;;;26.30;36.78;101272.88;5011778;28;20195;-81
2022/05/17 11:16:55;;;;;;;4.20;1.30;;;;;;;26.29;36.69;101266.56;5011032;28;20217;-81
2022/05/17 11:19:27;;;;;;;3.15;1.15;;;;;;;26.30;36.72;101270.13;5010954;28;20229;-81
2022/05/17 11:22:01;;;;;;;2.47;1.20;;;;;;;26.25;36.33;101266.03;5011728;28;20226;-80
2022/05/17 11:24:59;;;;;;;1.60;1.00;;;;;;;26.20;36.31;101262.16;5011596;28;20209;-80
2022/05/17 11:27:39;;;;;;;2.00;1.08;;;;;;;26.20;36.29;101260.28;4990931;28;20306;-81
2022/05/17 11:30:26;;;;;;;5.65;1.25;;;;;;;26.25;35.97;101267.91;5011795;28;20241;-82
2022/05/17 11:33:30;;;;;;;1.95;0.73;;;;;;;26.29;35.93;101250.16;5011728;28;20221;-82
2022/05/17 11:35:58;;;;;;;2.95;1.30;;;;;;;26.30;36.02;101254.59;5011785;28;20216;-81
2022/05/17 11:38:48;;;;;;;2.28;1.15;;;;;;;26.33;36.56;101253.38;5010777;28;20238;-80
2022/05/17 11:41:18;;;;;;;3.67;1.30;;;;;;;26.34;36.76;101261.38;5012091;28;20603;-81
2022/05/17 11:43:48;;;;;;;2.10;1.00;;;;;;;26.38;37.16;101251.78;5012254;28;20215;-82
2022/05/17 11:46:42;;;;;;;3.58;1.52;;;;;;;26.48;37.80;101255.09;5011367;28;20233;-82